KSAA/SAA METAR and TAF weather

Enter ICAO airport designator
Station Type Date Time Source
KSAA METAR 2019/12/16 05:55 UTC NOAA

KSAA 160555Z AUTO 00000KT 10SM CLR M21/M21 A2994 RMK AO2


Station Type Date Time Source
KSAA Decoded METAR 2019/12/16 05:55 UTC NOAA

Station name not available
Dec 16, 2019 - 12:55 AM EST / 2019.12.16 0555 UTC
Wind: Calm:0
Visibility: 10 mile(s):0
Sky conditions: clear
Temperature: -5 F (-21 C)
Dew Point: -5 F (-21 C)
Relative Humidity: 100%
Pressure (altimeter): 29.94 in. Hg (1013 hPa)
ob: KSAA 160555Z AUTO 00000KT 10SM CLR M21/M21 A2994 RMK AO2
cycle: 6

Station Type Date Time Source
KSAA TAF UTC NOAA

Error!

Example: see airport list